Ana Sayfa
METAR-TAF:

METAR-TAF

Havaalanları :

Searle Field

Ogallala, Nebraska, Amerika Birleşik Devletleri

Enlem: 41-07-11N, Boylam: 101-46-08W, yükseklik: 999 m

Güncel hava durumu gözlemi

Rapor saat 11:55 UTC de 22 dakika önce yapıldı.
Rüzgar güneybatıdan 6 kt
Sıcaklık 18°C
Nem 77%
Basınç 1007 hPa
Görüş mesafesi: 16.1 km
Açık gökyüzü

METAR: KOGA 161155Z AUTO 23006KT 10SM CLR 18/14 A2973 RMK AO2 T01840135 10253 20175

Saat: 06:17 (12:17 UTC)


TAF: eksik

4.000'den fazla havaalanı için hava durumu gözlemleri ve tahminleri (METAR ve TAF raporları).

Kullanılabilir istasyonlar harita üzerinde sarı ve kırmızı noktalarla gösterilir.

İstasyonun adını görmek için fareyi noktanın üzerinde gezdirin.

Sonrasında hava gözlem ve tahminlerini görmek için tıklayın.

Haritayı değiştirmek için: yaklaştırmak için siyah artı işaretli yeşil düğmeye ve uzaklaştırmak için de eksi işaretli düğmeye hızla tıklayın; bitişik haritalar için yeşil okları kullanın.


METAR-TAF: